Terminal Aerodrome Forecast
Issued by NWS Sterling, VA

Home | Current Version | Previous Version | Text Only | Print | Product List | Glossary On
Versions: 1 2 3 4 5 6 7 8 9 10 11 12 13 14 15 16 17
000
FTUS41 KLWX 051141
TAFMRB
TAF
KMRB 051141Z 0512/0612 VRB03KT 3SM BR OVC015
     FM051300 VRB03KT P6SM OVC025
     FM051700 13004KT P6SM BKN040
     FM052300 12005KT P6SM SCT080
     FM060600 00000KT P6SM SCT250=

USA.gov is the U.S. government's official web portal to all federal, state and local government web resources and services.